Time;durP1;ratioP1;P1;durP2;ratioP2;P2;SDS_P1;SDS_P2;PMS_P1;PMS_P2;Temp;Humidity;BMP_temperature;BMP_pressure;BME280_temperature;BME280_humidity;BME280_pressure;Samples;Min_cycle;Max_cycle;Signal;HPM_P1;HPM_P2
2022/01/05 00:01:00;;;;;;;7.82;0.70;;;;;;;-146.48;100.00;39557.31;5284661;28;20101;-70
2022/01/05 00:03:31;;;;;;;9.85;0.70;;;;;;;-146.48;100.00;39515.47;5285113;28;20047;-69
2022/01/05 00:06:03;;;;;;;10.80;1.15;;;;;;;-146.48;100.00;39373.94;5283864;28;20033;-69
2022/01/05 00:08:34;;;;;;;6.28;1.38;;;;;;;-146.48;100.00;39246.38;5285034;28;20103;-69
2022/01/05 00:11:07;;;;;;;10.85;0.70;;;;;;;-146.48;100.00;39182.59;5283671;28;20104;-69
2022/01/05 00:13:39;;;;;;;10.23;0.70;;;;;;;-146.48;100.00;39174.63;5284245;28;20021;-70
2022/01/05 00:16:10;;;;;;;8.73;0.60;;;;;;;-146.48;100.00;39148.72;5284866;28;20031;-69
2022/01/05 00:18:41;;;;;;;6.57;0.70;;;;;;;-146.48;100.00;39043.09;5283611;28;20545;-69
2022/01/05 00:21:13;;;;;;;13.95;1.27;;;;;;;-146.48;100.00;38977.31;5284948;28;20028;-69
2022/01/05 00:23:44;;;;;;;7.90;0.68;;;;;;;-146.48;100.00;38887.63;5284150;28;20025;-69
2022/01/05 00:26:15;;;;;;;7.50;1.30;;;;;;;-146.48;100.00;38863.72;5283951;28;20040;-68
2022/01/05 00:28:46;;;;;;;12.60;1.40;;;;;;;-146.48;100.00;38801.94;5284150;28;20098;-69
2022/01/05 00:31:18;;;;;;;6.80;0.70;;;;;;;-146.48;100.00;38750.13;5284758;28;20063;-69
2022/01/05 00:33:50;;;;;;;9.77;0.75;;;;;;;-146.48;100.00;38698.31;5283236;28;20024;-69
2022/01/05 00:36:21;;;;;;;13.20;1.40;;;;;;;-146.48;100.00;38748.13;5284184;28;20108;-68
2022/01/05 00:38:53;;;;;;;9.45;0.98;;;;;;;-146.48;100.00;38730.19;5282342;28;20111;-69
2022/01/05 00:41:24;;;;;;;9.18;0.88;;;;;;;-146.48;100.00;38674.41;5284792;28;20028;-68
2022/01/05 00:43:55;;;;;;;7.95;0.90;;;;;;;-146.48;100.00;38572.78;5283959;28;20523;-69
2022/01/05 00:46:26;;;;;;;10.25;0.70;;;;;;;-146.48;100.00;38522.94;5283289;28;20083;-69
2022/01/05 00:48:58;;;;;;;10.15;0.75;;;;;;;-146.48;100.00;38421.31;5283703;28;20032;-69
2022/01/05 00:51:29;;;;;;;12.73;0.75;;;;;;;-146.48;100.00;38355.56;5284447;28;20100;-69
2022/01/05 00:54:00;;;;;;;13.23;0.70;;;;;;;-146.48;100.00;38295.78;5283007;28;20032;-69
2022/01/05 00:56:32;;;;;;;7.90;1.35;;;;;;;-146.48;100.00;38293.78;5284310;28;20033;-69
2022/01/05 00:59:03;;;;;;;8.40;0.82;;;;;;;-146.48;100.00;38198.16;5283229;28;20103;-70
2022/01/05 01:01:36;;;;;;;12.80;0.93;;;;;;;-146.48;100.00;38120.44;5283169;28;20107;-68
2022/01/05 01:04:08;;;;;;;9.68;1.92;;;;;;;-146.48;100.00;38146.34;5284088;28;20051;-68
2022/01/05 01:06:39;;;;;;;9.77;1.27;;;;;;;-146.48;100.00;38162.28;5283482;28;20104;-69
2022/01/05 01:09:11;;;;;;;9.88;0.80;;;;;;;-146.48;100.00;38206.13;5283294;28;20023;-69
2022/01/05 01:11:42;;;;;;;8.93;0.70;;;;;;;-146.48;100.00;38234.00;5283094;28;20047;-69
2022/01/05 01:14:13;;;;;;;10.02;0.70;;;;;;;-146.48;100.00;38281.84;5283048;28;20420;-69
2022/01/05 01:16:45;;;;;;;9.80;0.82;;;;;;;-146.48;100.00;38269.88;5283263;28;20032;-68
2022/01/05 01:19:16;;;;;;;6.35;1.02;;;;;;;-146.48;100.00;38285.81;5283586;28;20044;-68
2022/01/05 01:21:47;;;;;;;10.27;1.00;;;;;;;-146.48;100.00;38208.09;5282054;28;20475;-68
2022/01/05 01:24:19;;;;;;;7.43;1.00;;;;;;;-146.48;100.00;38214.09;5283444;28;20455;-68
2022/01/05 01:26:50;;;;;;;6.22;0.60;;;;;;;-146.48;100.00;38210.09;5282747;28;20029;-68
2022/01/05 01:29:21;;;;;;;5.93;1.15;;;;;;;-146.48;100.00;38164.28;5282654;28;20060;-68
2022/01/05 01:31:52;;;;;;;8.60;0.73;;;;;;;-146.48;100.00;38228.03;5282853;28;20043;-69
2022/01/05 01:34:24;;;;;;;8.40;1.20;;;;;;;-146.48;100.00;38234.00;5283399;28;20066;-68
2022/01/05 01:36:55;;;;;;;9.50;1.00;;;;;;;-146.48;100.00;38220.06;5281875;28;20361;-69
2022/01/05 01:39:26;;;;;;;7.50;0.77;;;;;;;-146.48;100.00;38222.06;5283048;28;20046;-69
2022/01/05 01:41:57;;;;;;;6.30;0.73;;;;;;;-146.48;100.00;38230.03;5282774;28;20032;-70
2022/01/05 01:44:29;;;;;;;10.98;0.77;;;;;;;-146.48;100.00;38257.91;5282429;28;20109;-69
2022/01/05 01:47:00;;;;;;;10.00;1.23;;;;;;;-146.48;100.00;38341.63;5282472;28;20051;-69
2022/01/05 01:49:31;;;;;;;12.70;0.80;;;;;;;-146.48;100.00;38327.66;5282102;28;20174;-69
2022/01/05 01:52:03;;;;;;;6.00;1.40;;;;;;;-146.48;100.00;38315.72;5282522;28;20074;-69
2022/01/05 01:54:35;;;;;;;9.60;0.50;;;;;;;-146.48;100.00;38277.84;5282689;28;20036;-69
2022/01/05 01:57:07;;;;;;;7.90;1.10;;;;;;;-146.48;100.00;38327.66;5281440;28;20056;-70
2022/01/05 01:59:38;;;;;;;7.38;0.60;;;;;;;-146.48;100.00;38267.88;5282313;28;20056;-70
2022/01/05 02:02:10;;;;;;;9.68;0.82;;;;;;;-146.48;100.00;38222.06;5282761;28;20117;-69
2022/01/05 02:04:43;;;;;;;9.75;1.08;;;;;;;-146.48;100.00;38148.34;5281556;28;20101;-70
2022/01/05 02:07:14;;;;;;;10.80;0.80;;;;;;;-146.48;100.00;38028.78;5282746;28;20024;-69
2022/01/05 02:09:45;;;;;;;10.18;0.95;;;;;;;-146.48;100.00;37943.09;5282081;28;20027;-69
2022/01/05 02:12:16;;;;;;;11.47;0.97;;;;;;;-146.48;100.00;37873.38;5281612;28;20112;-69
2022/01/05 02:14:48;;;;;;;12.83;0.90;;;;;;;-146.48;100.00;37761.78;5282001;28;20456;-69
2022/01/05 02:17:23;;;;;;;11.50;0.83;;;;;;;-146.48;100.00;37582.47;5281582;28;20085;-69
2022/01/05 02:19:54;;;;;;;9.67;0.93;;;;;;;-146.48;100.00;37407.16;5281847;28;20085;-69
2022/01/05 02:22:26;;;;;;;8.88;1.90;;;;;;;-146.48;100.00;37325.50;5282467;28;20463;-69
2022/01/05 02:24:57;;;;;;;13.03;2.17;;;;;;;-146.48;100.00;37215.91;5281060;28;20111;-69
2022/01/05 02:27:28;;;;;;;8.67;0.80;;;;;;;-146.48;100.00;37144.22;5282549;28;20031;-69
2022/01/05 02:29:59;;;;;;;12.73;1.53;;;;;;;-146.48;100.00;37086.44;5281916;28;20024;-69
2022/01/05 02:32:31;;;;;;;10.57;1.00;;;;;;;-146.48;100.00;37032.66;5281592;28;20017;-69
2022/01/05 02:35:03;;;;;;;10.27;0.97;;;;;;;-146.48;100.00;37026.69;5281760;28;20043;-68
2022/01/05 02:37:40;;;;;;;7.85;1.23;;;;;;;-146.48;100.00;37064.53;5281999;28;20063;-69
2022/01/05 02:40:14;;;;;;;13.07;1.07;;;;;;;-146.48;100.00;37074.50;5281544;28;20107;-69
2022/01/05 02:42:46;;;;;;;15.57;1.20;;;;;;;-146.48;100.00;37068.50;5281571;28;20077;-68
2022/01/05 02:45:17;;;;;;;8.77;0.90;;;;;;;-146.48;100.00;37120.31;5281714;28;20029;-68
2022/01/05 02:47:48;;;;;;;7.23;0.63;;;;;;;-146.48;100.00;37144.22;5280644;28;20028;-68
2022/01/05 02:50:20;;;;;;;5.10;0.88;;;;;;;-146.48;100.00;37229.88;5282460;28;20083;-69
2022/01/05 02:52:51;;;;;;;6.77;0.50;;;;;;;-146.48;100.00;37281.66;5280762;28;20032;-69
2022/01/05 02:55:22;;;;;;;7.97;0.70;;;;;;;-146.48;100.00;37283.66;5282098;28;20127;-69
2022/01/05 02:57:53;;;;;;;8.03;0.87;;;;;;;-146.48;100.00;37309.56;5281296;28;20032;-69
2022/01/05 03:00:25;;;;;;;10.87;1.23;;;;;;;-146.48;100.00;37458.97;5280672;28;20040;-69
2022/01/05 03:02:56;;;;;;;16.20;2.50;;;;;;;-146.48;100.00;37548.63;5281310;28;20288;-69
2022/01/05 03:05:27;;;;;;;9.97;0.80;;;;;;;-146.48;100.00;37640.25;5281991;28;20398;-69
2022/01/05 03:07:59;;;;;;;7.37;0.70;;;;;;;-146.48;100.00;37741.88;5280496;28;20070;-69
2022/01/05 03:10:30;;;;;;;8.70;1.07;;;;;;;-146.48;100.00;37839.50;5281757;28;20029;-69
2022/01/05 03:13:02;;;;;;;9.17;0.90;;;;;;;-146.48;100.00;37921.19;5281200;28;20023;-69
2022/01/05 03:15:35;;;;;;;7.33;0.70;;;;;;;-146.48;100.00;37992.91;5281074;28;20032;-69
2022/01/05 03:18:07;;;;;;;9.93;0.83;;;;;;;-146.48;100.00;38022.81;5281097;28;20057;-69
2022/01/05 03:20:39;;;;;;;10.57;2.10;;;;;;;-146.48;100.00;38106.50;5280424;28;20483;-69
2022/01/05 03:23:11;;;;;;;7.07;0.63;;;;;;;-146.48;100.00;38148.34;5281603;28;20036;-69
2022/01/05 03:25:43;;;;;;;7.23;0.90;;;;;;;-146.48;100.00;38150.31;5281268;28;20032;-69
2022/01/05 03:28:14;;;;;;;8.97;0.80;;;;;;;-146.48;100.00;38247.97;5281047;28;20066;-70
2022/01/05 03:30:46;;;;;;;5.50;0.60;;;;;;;-146.48;100.00;38257.91;5281160;28;20407;-69
2022/01/05 03:33:21;;;;;;;14.80;1.60;;;;;;;-146.48;100.00;38243.97;5281633;28;20040;-69
2022/01/05 03:35:52;;;;;;;9.93;0.93;;;;;;;-146.48;100.00;38236.00;5280299;28;20391;-69
2022/01/05 03:38:24;;;;;;;8.63;1.23;;;;;;;-146.48;100.00;38198.16;5281825;28;20024;-69
2022/01/05 03:40:55;;;;;;;10.33;0.57;;;;;;;-146.48;100.00;38240.00;5280893;28;20024;-68
2022/01/05 03:43:27;;;;;;;10.13;1.00;;;;;;;-146.48;100.00;38307.75;5280773;28;20446;-68
2022/01/05 03:45:58;;;;;;;5.63;0.70;;;;;;;-146.48;100.00;38317.69;5280814;28;20487;-68
2022/01/05 03:48:30;;;;;;;11.77;1.30;;;;;;;-146.48;100.00;38339.63;5281503;28;20452;-68
2022/01/05 03:51:01;;;;;;;8.00;0.80;;;;;;;-146.48;100.00;38202.13;5280250;28;20028;-67
2022/01/05 03:53:32;;;;;;;11.17;1.80;;;;;;;-146.48;100.00;38156.31;5281509;28;20056;-70
2022/01/05 03:56:04;;;;;;;9.80;1.37;;;;;;;-146.48;100.00;38148.34;5280014;28;20028;-68
2022/01/05 03:58:35;;;;;;;8.43;1.33;;;;;;;-146.48;100.00;38096.53;5281119;28;20032;-68
2022/01/05 04:01:06;;;;;;;7.53;0.70;;;;;;;-146.48;100.00;38044.72;5280732;28;20383;-67
2022/01/05 04:03:38;;;;;;;13.33;1.53;;;;;;;-146.48;100.00;37973.00;5279988;28;20382;-68
2022/01/05 04:06:09;;;;;;;9.13;1.37;;;;;;;-146.48;100.00;37877.34;5281393;28;20029;-68
2022/01/05 04:08:41;;;;;;;11.37;1.10;;;;;;;-146.48;100.00;37715.97;5280819;28;20055;-68
2022/01/05 04:11:12;;;;;;;12.17;0.90;;;;;;;-146.48;100.00;37528.69;5280372;28;20025;-68
2022/01/05 04:13:43;;;;;;;8.60;0.87;;;;;;;-146.48;100.00;37367.31;5283632;28;20372;-68
2022/01/05 04:16:15;;;;;;;11.90;1.03;;;;;;;-146.48;100.00;37172.09;5285055;28;20026;-68
2022/01/05 04:18:46;;;;;;;10.83;0.70;;;;;;;-146.48;100.00;36968.91;5283578;28;20039;-68
2022/01/05 04:21:17;;;;;;;9.00;1.03;;;;;;;-146.48;100.00;36855.38;5284822;28;20033;-68
2022/01/05 04:23:49;;;;;;;10.33;0.80;;;;;;;-146.48;100.00;36705.97;5284059;28;20039;-69
2022/01/05 04:26:20;;;;;;;11.73;0.70;;;;;;;-146.48;100.00;36546.63;5284070;28;20059;-69
2022/01/05 04:28:51;;;;;;;14.40;0.80;;;;;;;-146.48;100.00;36415.19;5284088;28;20056;-69
2022/01/05 04:31:22;;;;;;;12.87;1.07;;;;;;;-146.48;100.00;36353.44;5283915;28;20502;-69
2022/01/05 04:33:54;;;;;;;14.73;1.37;;;;;;;-146.48;100.00;36297.69;5283917;28;20029;-69
2022/01/05 04:36:26;;;;;;;15.30;1.30;;;;;;;-146.48;100.00;36273.78;5284825;28;20032;-68
2022/01/05 04:38:57;;;;;;;11.23;1.17;;;;;;;-146.48;100.00;36212.03;5283149;28;20036;-69
2022/01/05 04:41:28;;;;;;;11.23;0.80;;;;;;;-146.48;100.00;36186.16;5284588;28;20089;-69
2022/01/05 04:43:59;;;;;;;12.33;1.27;;;;;;;-146.48;100.00;36224.00;5283833;28;20033;-69
2022/01/05 04:46:31;;;;;;;10.47;1.03;;;;;;;-146.48;100.00;36237.94;5283278;28;20051;-69
2022/01/05 04:49:04;;;;;;;11.07;0.93;;;;;;;-146.48;100.00;36321.56;5284005;28;20039;-69
2022/01/05 04:51:35;;;;;;;14.80;1.23;;;;;;;-146.48;100.00;36333.53;5284391;28;20138;-69
2022/01/05 04:54:07;;;;;;;9.50;1.30;;;;;;;-146.48;100.00;36367.38;5282975;28;20029;-69
2022/01/05 04:56:38;;;;;;;13.50;1.20;;;;;;;-146.48;100.00;36466.97;5283527;28;20028;-69
2022/01/05 04:59:09;;;;;;;14.25;1.20;;;;;;;-146.48;100.00;36514.78;5283265;28;20052;-69
2022/01/05 05:01:41;;;;;;;15.53;1.40;;;;;;;-146.48;100.00;36522.75;5283744;28;20383;-69
2022/01/05 05:04:12;;;;;;;16.57;1.37;;;;;;;-146.48;100.00;36526.72;5284233;28;20032;-69
2022/01/05 05:06:43;;;;;;;14.97;1.53;;;;;;;-146.48;100.00;36518.75;5282677;28;20021;-69
2022/01/05 05:09:15;;;;;;;10.00;0.90;;;;;;;-146.48;100.00;36540.66;5283924;28;20111;-69
2022/01/05 05:11:46;;;;;;;11.53;0.80;;;;;;;-146.48;100.00;36512.78;5283081;28;20036;-69
2022/01/05 05:14:17;;;;;;;10.27;0.90;;;;;;;-146.48;100.00;36546.63;5283090;28;20032;-70
2022/01/05 05:16:49;;;;;;;12.30;2.10;;;;;;;-146.48;100.00;36431.13;5283584;28;20033;-69
2022/01/05 05:19:20;;;;;;;14.35;1.30;;;;;;;-146.48;100.00;36397.25;5283711;28;20105;-69
2022/01/05 05:21:51;;;;;;;10.67;1.10;;;;;;;-146.48;100.00;36329.53;5280828;28;20025;-70
2022/01/05 05:24:23;;;;;;;6.65;1.00;;;;;;;-146.48;100.00;36289.72;5283455;28;20082;-69
2022/01/05 05:26:54;;;;;;;10.13;0.77;;;;;;;-146.48;100.00;36233.94;5283029;28;20068;-69
2022/01/05 05:29:25;;;;;;;14.48;1.42;;;;;;;-146.48;100.00;36176.19;5282784;28;20032;-69
2022/01/05 05:31:56;;;;;;;12.38;1.10;;;;;;;-146.48;100.00;36144.31;5282908;28;20032;-69
2022/01/05 05:34:28;;;;;;;11.20;1.50;;;;;;;-146.48;100.00;36126.41;5282529;28;20028;-69
2022/01/05 05:36:59;;;;;;;10.45;1.25;;;;;;;-146.48;100.00;36052.72;5282801;28;20039;-69
2022/01/05 05:39:31;;;;;;;10.50;1.10;;;;;;;-146.48;100.00;36004.91;5283500;28;20044;-69
2022/01/05 05:42:03;;;;;;;11.32;1.00;;;;;;;-146.48;100.00;35973.06;5281713;28;20024;-70
2022/01/05 05:44:34;;;;;;;15.00;2.15;;;;;;;-146.48;100.00;35951.16;5283347;28;20478;-69
2022/01/05 05:47:06;;;;;;;13.53;1.50;;;;;;;-146.48;100.00;35990.97;5282242;28;20048;-70
2022/01/05 05:49:37;;;;;;;13.88;1.50;;;;;;;-146.48;100.00;36012.88;5281965;28;20024;-70
2022/01/05 05:52:09;;;;;;;12.25;1.20;;;;;;;-146.48;100.00;36132.38;5283024;28;20085;-69
2022/01/05 05:54:40;;;;;;;11.43;1.02;;;;;;;-146.48;100.00;36176.19;5282255;28;20461;-69
2022/01/05 05:57:11;;;;;;;11.80;1.60;;;;;;;-146.48;100.00;36172.22;5282052;28;20463;-69
2022/01/05 05:59:43;;;;;;;16.05;1.25;;;;;;;-146.48;100.00;36164.25;5282256;28;20028;-70
2022/01/05 06:02:14;;;;;;;8.55;1.42;;;;;;;-146.48;100.00;36108.47;5282823;28;20028;-69
2022/01/05 06:04:46;;;;;;;11.98;1.23;;;;;;;-146.48;100.00;36114.44;5281356;28;20467;-69
2022/01/05 06:07:17;;;;;;;11.88;1.98;;;;;;;-146.48;100.00;36026.81;5282905;28;20455;-67
2022/01/05 06:09:48;;;;;;;13.68;2.03;;;;;;;-146.48;100.00;36028.81;5280958;28;20032;-70
2022/01/05 06:12:19;;;;;;;15.63;1.33;;;;;;;-146.48;100.00;36010.91;5282752;28;20501;-69
2022/01/05 06:14:51;;;;;;;13.30;1.70;;;;;;;-146.48;100.00;36048.72;5282095;28;20051;-69
2022/01/05 06:17:22;;;;;;;7.80;0.85;;;;;;;-146.48;100.00;36040.75;5281715;28;20037;-69
2022/01/05 06:19:53;;;;;;;9.23;0.95;;;;;;;-146.48;100.00;35990.97;5281915;28;20025;-70
2022/01/05 06:22:26;;;;;;;8.30;1.15;;;;;;;-146.48;100.00;36036.78;5282385;28;20024;-69
2022/01/05 06:24:57;;;;;;;9.35;0.73;;;;;;;-146.48;100.00;36116.44;5281161;28;20475;-69
2022/01/05 06:27:28;;;;;;;10.60;1.35;;;;;;;-146.48;100.00;36200.09;5282418;28;20039;-69
2022/01/05 06:30:04;;;;;;;19.23;1.88;;;;;;;-146.48;100.00;36271.78;5281663;28;20035;-69
2022/01/05 06:32:41;;;;;;;9.43;1.25;;;;;;;-146.48;100.00;36371.38;5281559;28;20025;-69
2022/01/05 06:35:14;;;;;;;12.32;1.42;;;;;;;-146.48;100.00;36415.19;5281723;28;20028;-69
2022/01/05 06:37:45;;;;;;;12.68;1.60;;;;;;;-146.48;100.00;36429.13;5280955;28;20474;-69
2022/01/05 06:40:17;;;;;;;15.15;1.40;;;;;;;-146.48;100.00;36441.06;5282341;28;20025;-69
2022/01/05 06:42:48;;;;;;;13.80;1.15;;;;;;;-146.48;100.00;36464.97;5281609;28;20111;-69
2022/01/05 06:45:20;;;;;;;16.05;2.22;;;;;;;-146.48;100.00;36550.63;5281113;28;20040;-69
2022/01/05 06:47:51;;;;;;;17.98;1.30;;;;;;;-146.48;100.00;36560.59;5281577;28;20021;-69
2022/01/05 06:50:23;;;;;;;10.57;1.00;;;;;;;-146.48;100.00;36628.31;5282223;28;20530;-69
2022/01/05 06:52:57;;;;;;;16.30;1.40;;;;;;;-146.48;100.00;36662.16;5280945;28;20070;-69
2022/01/05 06:55:29;;;;;;;14.13;1.20;;;;;;;-146.48;100.00;36704.00;5282208;28;20021;-69
2022/01/05 06:58:00;;;;;;;11.77;1.13;;;;;;;-146.48;100.00;36713.94;5281210;28;20059;-69
2022/01/05 07:00:31;;;;;;;15.85;1.60;;;;;;;-146.48;100.00;36648.22;5281085;28;20033;-69
2022/01/05 07:03:04;;;;;;;11.75;1.00;;;;;;;-146.48;100.00;36711.97;5281582;28;20395;-68
2022/01/05 07:05:36;;;;;;;20.50;1.77;;;;;;;-146.48;100.00;36771.72;5282073;28;20027;-68
2022/01/05 07:08:07;;;;;;;8.95;1.08;;;;;;;-146.48;100.00;36883.25;5280945;28;20020;-70
2022/01/05 07:10:39;;;;;;;14.43;1.65;;;;;;;-146.48;100.00;37016.72;5281194;28;20025;-69
2022/01/05 07:13:10;;;;;;;17.08;1.50;;;;;;;-146.48;100.00;37098.38;5281153;28;20383;-69
2022/01/05 07:15:41;;;;;;;12.98;1.90;;;;;;;-146.48;100.00;37219.91;5281364;28;20020;-69
2022/01/05 07:18:12;;;;;;;11.65;1.10;;;;;;;-146.48;100.00;37295.59;5281694;28;20028;-69
2022/01/05 07:20:45;;;;;;;14.55;1.88;;;;;;;-146.48;100.00;37317.53;5280281;28;20020;-69
2022/01/05 07:23:16;;;;;;;12.50;0.82;;;;;;;-146.48;100.00;37421.13;5281914;28;20106;-69
2022/01/05 07:25:47;;;;;;;13.45;1.35;;;;;;;-146.48;100.00;37353.38;5281286;28;20056;-68
2022/01/05 07:28:18;;;;;;;15.73;1.70;;;;;;;-146.48;100.00;37335.44;5281168;28;20035;-69
2022/01/05 07:30:50;;;;;;;13.13;1.25;;;;;;;-146.48;100.00;37383.25;5281070;28;20154;-69
2022/01/05 07:33:21;;;;;;;12.13;1.13;;;;;;;-146.48;100.00;37407.16;5281610;28;20021;-68
2022/01/05 07:35:53;;;;;;;14.70;1.50;;;;;;;-146.48;100.00;37480.88;5280146;28;20025;-69
2022/01/05 07:38:24;;;;;;;9.77;1.00;;;;;;;-146.48;100.00;37500.81;5281666;28;20395;-69
2022/01/05 07:40:55;;;;;;;11.15;1.02;;;;;;;-146.48;100.00;37514.75;5280227;28;20027;-69
2022/01/05 07:43:27;;;;;;;10.25;0.82;;;;;;;-146.48;100.00;37568.53;5281463;28;20154;-69
2022/01/05 07:45:59;;;;;;;14.13;1.60;;;;;;;-146.48;100.00;37528.69;5280946;28;20504;-69
2022/01/05 07:48:30;;;;;;;14.65;1.92;;;;;;;-146.48;100.00;37530.69;5285041;28;20103;-69
2022/01/05 07:51:01;;;;;;;13.88;1.38;;;;;;;-146.48;100.00;37554.59;5284937;28;20024;-69
2022/01/05 07:53:32;;;;;;;12.57;1.50;;;;;;;-146.48;100.00;37622.31;5285532;28;20036;-69
2022/01/05 07:56:04;;;;;;;12.82;1.30;;;;;;;-146.48;100.00;37733.91;5283657;28;20020;-69
2022/01/05 07:58:37;;;;;;;9.82;1.27;;;;;;;-146.48;100.00;37741.88;5285449;28;20181;-69
2022/01/05 08:01:08;;;;;;;13.07;1.58;;;;;;;-146.48;100.00;37727.91;5285438;28;20540;-69
2022/01/05 08:03:39;;;;;;;17.70;1.02;;;;;;;-146.48;100.00;37759.81;5283880;28;20038;-69
2022/01/05 08:06:11;;;;;;;12.80;1.10;;;;;;;-146.48;100.00;37841.50;5285119;28;20028;-68
2022/01/05 08:08:43;;;;;;;14.45;1.83;;;;;;;-146.48;100.00;37875.34;5284362;28;20147;-68
2022/01/05 08:11:15;;;;;;;11.60;1.30;;;;;;;-146.48;100.00;37811.59;5284550;28;20494;-69
2022/01/05 08:13:47;;;;;;;11.82;1.75;;;;;;;-146.48;100.00;37857.44;5284424;28;20031;-68
2022/01/05 08:16:19;;;;;;;11.80;1.02;;;;;;;-146.48;100.00;37801.63;5284233;28;20539;-68
2022/01/05 08:18:50;;;;;;;10.55;1.10;;;;;;;-146.48;100.00;37713.97;5284379;28;20036;-69
2022/01/05 08:21:22;;;;;;;14.25;2.22;;;;;;;-146.48;100.00;37550.59;5284887;28;20135;-69
2022/01/05 08:23:53;;;;;;;12.65;0.75;;;;;;;-146.48;100.00;37419.13;5283710;28;20427;-68
2022/01/05 08:26:24;;;;;;;15.20;1.80;;;;;;;-146.48;100.00;37285.66;5284948;28;20095;-69
2022/01/05 08:28:56;;;;;;;14.10;1.77;;;;;;;-146.48;100.00;37072.50;5283977;28;20051;-70
2022/01/05 08:31:27;;;;;;;14.10;1.58;;;;;;;-146.48;100.00;36943.00;5283577;28;20067;-69
2022/01/05 08:33:59;;;;;;;14.23;1.85;;;;;;;-146.48;100.00;36861.34;5283844;28;20024;-68
2022/01/05 08:36:30;;;;;;;13.02;1.27;;;;;;;-146.48;100.00;36737.84;5284898;28;20486;-69
2022/01/05 08:39:02;;;;;;;13.38;1.13;;;;;;;-146.48;100.00;36709.97;5283231;28;20032;-69
2022/01/05 08:41:34;;;;;;;14.70;0.80;;;;;;;-146.48;100.00;36594.44;5284615;28;20391;-69
2022/01/05 08:44:05;;;;;;;11.50;0.95;;;;;;;-146.48;100.00;36542.66;5283879;28;20024;-69
2022/01/05 08:46:36;;;;;;;13.70;1.05;;;;;;;-146.48;100.00;36544.66;5283453;28;20122;-69
2022/01/05 08:49:10;;;;;;;16.40;2.25;;;;;;;-146.48;100.00;36391.28;5284049;28;20036;-69
2022/01/05 08:51:43;;;;;;;10.90;0.90;;;;;;;-146.48;100.00;36204.06;5283043;28;20016;-69
2022/01/05 08:54:14;;;;;;;15.15;2.17;;;;;;;-146.48;100.00;35943.19;5284323;28;20040;-70
2022/01/05 08:56:45;;;;;;;10.20;0.85;;;;;;;-146.48;100.00;35781.88;5283564;28;20021;-69
2022/01/05 08:59:16;;;;;;;13.10;1.25;;;;;;;-146.48;100.00;35614.59;5282733;28;20066;-70
2022/01/05 09:01:48;;;;;;;10.73;0.80;;;;;;;-146.48;100.00;35493.16;5283344;28;20029;-68
2022/01/05 09:04:19;;;;;;;11.82;0.80;;;;;;;-146.48;100.00;35511.06;5284159;28;20472;-68
2022/01/05 09:06:50;;;;;;;14.90;1.33;;;;;;;-146.48;100.00;35644.47;5282507;28;20036;-68
2022/01/05 09:09:22;;;;;;;10.60;2.13;;;;;;;-146.48;100.00;35704.22;5283944;28;20048;-67
2022/01/05 09:11:53;;;;;;;17.55;1.75;;;;;;;-146.48;100.00;35881.44;5283400;28;20036;-68
2022/01/05 09:14:24;;;;;;;15.63;1.55;;;;;;;-146.48;100.00;35300.00;5283080;28;20081;-68
2022/01/05 09:16:56;;;;;;;10.90;0.82;;;;;;;-146.48;100.00;34696.75;5282981;28;20072;-69
2022/01/05 09:19:28;;;;;;;7.18;0.60;;;;;;;-146.48;100.00;34332.44;5282733;28;20082;-69
2022/01/05 09:22:00;;;;;;;13.95;1.42;;;;;;;-146.48;100.00;34153.28;5283096;28;20025;-69
2022/01/05 09:24:32;;;;;;;8.95;0.90;;;;;;;-146.48;100.00;34025.91;5283800;28;20434;-69
2022/01/05 09:27:06;;;;;;;15.68;0.90;;;;;;;-146.48;100.00;33868.66;5282254;28;20032;-69
2022/01/05 09:29:39;;;;;;;10.85;1.00;;;;;;;-146.48;100.00;33739.28;5282936;28;20020;-69
2022/01/05 09:32:11;;;;;;;10.00;0.90;;;;;;;-146.48;100.00;33530.31;5283465;28;20471;-69
2022/01/05 09:34:43;;;;;;;11.95;1.20;;;;;;;-146.48;100.00;33325.31;5282358;28;20027;-69
2022/01/05 09:37:25;;;;;;;11.48;1.23;;;;;;;-146.48;100.00;33116.34;5283541;28;20115;-69
2022/01/05 09:42:46;;;;;;;11.48;1.02;;;;;;;-146.48;100.00;33100.44;5302258;28;20032;-69
2022/01/05 09:45:20;;;;;;;11.02;0.88;;;;;;;-146.48;100.00;33190.00;5303847;28;20024;-69
2022/01/05 09:48:16;;;;;;;12.35;0.93;;;;;;;-146.48;100.00;33225.81;5300955;28;20028;-69
2022/01/05 09:50:58;;;;;;;9.65;0.90;;;;;;;-146.48;100.00;33420.84;5302393;28;20028;-69
2022/01/05 09:53:30;;;;;;;12.18;0.80;;;;;;;-146.48;100.00;33629.81;5303097;28;20020;-69
2022/01/05 09:56:03;;;;;;;8.90;0.60;;;;;;;-146.48;100.00;33607.91;5302197;28;20027;-69
2022/01/05 09:58:36;;;;;;;10.23;1.45;;;;;;;-146.48;100.00;33631.81;5302684;28;20032;-69
2022/01/05 10:01:07;;;;;;;10.80;1.35;;;;;;;-146.48;100.00;33787.03;5301906;28;20031;-69
2022/01/05 10:03:39;;;;;;;11.32;0.93;;;;;;;-146.48;100.00;34031.88;5301531;28;20028;-69
2022/01/05 10:06:12;;;;;;;9.10;0.70;;;;;;;-146.48;100.00;34163.25;5302939;28;20030;-69
2022/01/05 10:08:44;;;;;;;11.32;1.00;;;;;;;-146.48;100.00;34215.00;5301226;28;20513;-70
2022/01/05 10:11:15;;;;;;;14.13;1.60;;;;;;;-146.48;100.00;34292.63;5302448;28;20115;-68
2022/01/05 10:13:47;;;;;;;19.48;1.38;;;;;;;-146.48;100.00;34284.66;5301360;28;20099;-68
2022/01/05 10:16:18;;;;;;;14.20;1.23;;;;;;;-146.48;100.00;34366.28;5301600;28;20032;-68
2022/01/05 10:18:49;;;;;;;11.88;1.20;;;;;;;-146.48;100.00;34431.97;5301780;28;20024;-68
2022/01/05 10:21:21;;;;;;;8.93;0.75;;;;;;;-146.48;100.00;34457.84;5302359;28;20032;-68
2022/01/05 10:23:53;;;;;;;13.38;1.50;;;;;;;-146.48;100.00;34525.53;5300826;28;20093;-69
2022/01/05 10:26:39;;;;;;;9.50;0.90;;;;;;;-146.48;100.00;34597.19;5301783;28;20054;-69
2022/01/05 10:29:20;;;;;;;13.02;0.90;;;;;;;-146.48;100.00;34503.63;5302116;28;20020;-68
2022/01/05 10:31:55;;;;;;;10.05;0.88;;;;;;;-146.48;100.00;34469.78;5300828;28;20024;-68
2022/01/05 10:34:32;;;;;;;15.13;1.52;;;;;;;-146.48;100.00;34139.34;5301994;28;20123;-70
2022/01/05 10:37:05;;;;;;;9.43;0.80;;;;;;;-146.48;100.00;33936.31;5300622;28;20115;-69
2022/01/05 10:39:40;;;;;;;10.75;1.02;;;;;;;-146.48;100.00;33639.75;5301390;28;20031;-70
2022/01/05 10:42:13;;;;;;;10.10;0.73;;;;;;;-146.48;100.00;33297.44;5302102;28;20027;-69
2022/01/05 10:44:50;;;;;;;9.80;1.02;;;;;;;-146.48;100.00;33070.59;5300477;28;20063;-69
2022/01/05 10:47:21;;;;;;;9.73;1.13;;;;;;;-146.48;100.00;32744.25;5301732;28;20514;-69
2022/01/05 10:49:54;;;;;;;13.00;1.75;;;;;;;-146.48;100.00;32475.63;5301274;28;20032;-69
2022/01/05 10:52:32;;;;;;;15.07;1.70;;;;;;;-146.48;100.00;32218.97;5300614;28;20048;-69
2022/01/05 10:55:14;;;;;;;8.25;1.13;;;;;;;-146.48;100.00;32075.72;5300835;28;20040;-69
2022/01/05 10:58:02;;;;;;;15.02;1.27;;;;;;;-146.48;100.00;31994.16;5300535;28;20032;-70
2022/01/05 11:00:43;;;;;;;13.35;1.25;;;;;;;-146.48;100.00;31976.25;5301870;28;20047;-69
2022/01/05 11:03:30;;;;;;;12.48;1.77;;;;;;;-146.48;100.00;32008.06;5301732;28;20384;-70
2022/01/05 11:06:04;;;;;;;14.43;1.45;;;;;;;-146.48;100.00;31799.19;5299817;28;20046;-69
2022/01/05 11:08:56;;;;;;;9.13;0.90;;;;;;;-146.48;100.00;31598.28;5301823;28;20055;-70
2022/01/05 11:11:38;;;;;;;8.02;0.80;;;;;;;-146.48;100.00;31353.59;5301720;28;20020;-70
2022/01/05 11:14:11;;;;;;;14.57;1.10;;;;;;;-146.48;100.00;31190.50;5300836;28;20020;-69
2022/01/05 11:16:45;;;;;;;11.00;0.80;;;;;;;-146.48;100.00;30983.66;5301241;28;20020;-69
2022/01/05 11:19:19;;;;;;;9.65;1.23;;;;;;;-146.48;100.00;30715.16;5300426;28;20035;-69
2022/01/05 11:22:14;;;;;;;11.10;0.90;;;;;;;-146.48;100.00;30615.72;5302798;28;20031;-69
2022/01/05 11:24:51;;;;;;;17.42;2.15;;;;;;;-146.48;100.00;30701.22;5305074;28;20044;-68
2022/01/05 11:27:27;;;;;;;12.93;1.25;;;;;;;-146.48;100.00;30691.28;5305275;28;20379;-70
2022/01/05 11:29:58;;;;;;;12.15;1.52;;;;;;;-146.48;100.00;30758.91;5305193;28;20031;-70